Terminal Aerodrome Forecast
Issued by NWS

Home | Current Version | Previous Version | Text Only | Print | Product List | Glossary On
Versions: 1 2 3 4 5 6 7 8 9 10 11 12 13 14 15 16 17 18 19 20 21 22 23
000
FTUS41 KBUF 272324
TAFJHW
TAF
KJHW 272324Z 2800/2824 VRB03KT P6SM FEW050 SCT250
     FM280500 17005KT P6SM BKN200
     FM281000 18005KT P6SM BKN120
     FM281400 24004KT P6SM BKN050 BKN200
     FM281700 VRB03KT P6SM BKN035 BKN200
      AMD LTD TO CLD VIS AND WIND=

USA.gov is the U.S. government's official web portal to all federal, state and local government web resources and services.